AIRPORT INFORMATION 25-04-2018 04:20 KNMI / JUMPRUN.NL

SAEHAK A12-CPP NLD 48 m.
250355 ... METAR EHAK 250355Z AUTO 31009KT 1200 BR FEW000/// BKN033/// BKN046///
06/06 Q1003 W///H///=

SAEHAM AMSTERDAM/SCHIPHOL NLD -3 m.
250355 ... METAR COR EHAM 250355Z 25023KT 4000 DZRA FEW006 BKN009 11/10 Q1005
BECMG 28015G25KT 9999 NSW BKN015=

SAEHBK MAASTRICHT/MAASTRICHT- AACHEN
NLD 114 m.
250355 ... METAR EHBK 250355Z AUTO 24014G24KT 210V270 9999 BKN017 BKN021 OVC025
14/10 Q1009 TEMPO 4000 -RADZ BKN012=

SAEHDL ARNHEM/DEELEN NLD 48 m.
250355 ... METAR EHDL 250355Z AUTO 24014KT 200V310 4300 -RA FEW007 SCT010
FEW015CB BKN029 12/11 Q1006 RERA REDZ GRN=

SAEHDV D15-FA-1 NLD 42 m.
250355 ... METAR EHDV 250355Z AUTO 31013KT 9999 DZ FEW003/// BKN006/// BKN008///
07/06 Q1004 W///H///=

SAEHEH EINDHOVEN/EINDHOVEN NLD 22 m.
250355 ... METAR EHEH 250355Z AUTO 24018KT 200V280 9999 -DZ FEW017 SCT020 BKN024
13/10 Q1007 REDZ WHT=

SAEHFD F3-FB-1 NLD 50 m.
250355 ... METAR EHFD 250355Z AUTO VRB09KT 9999 BKN004/// OVC005/// 06/06 Q1002
W///H///=

SAEHFS VLISSINGEN AWS NLD 8 m.
250355 ... METAR EHFS 250355Z AUTO 25025KT 8000 FEW007/// SCT008/// BKN009///
11/10 Q1008 W///H///=

SAEHFZ F16-A NLD 43 m.
250355 ... METAR EHFZ 250355Z AUTO 33019KT 9999 FEW001 BKN003 BKN036 07/06 Q1003
W///H///=

SAEHGG GRONINGEN/EELDE NLD 5 m.
250355 ... METAR EHGG 250355Z AUTO 24017KT 210V270 9999 FEW007 SCT008 BKN010
FEW015CB 12/11 Q1002 REDZ=

SAEHGR GILZE-RIJEN/GILZE-RIJEN NLD 14 m.
250355 ... METAR EHGR 250355Z AUTO 25011KT 210V280 6000 -DZ FEW005 BKN007 BKN008
12/11 Q1008 REDZ GRN=

SAEHHW BUITENGAATS/BG-OHVS2   42 m.
250355 ... METAR EHHW 250355Z AUTO 26026KT 4600 -RA FEW004/// BKN006///
BKN008/// 09/09 Q1000 W///H///=

SAEHJA J6-A NLD 45 m.
250355 ... METAR EHJA 250355Z AUTO 29017KT 9999 FEW026/// OVC032/// 07/06 Q1004
W///H///=

SAEHJR K13-A NLD 37 m.
250355 ... METAR EHJR 250355Z AUTO 30022KT //// // ///////// 07/06 Q1005 RE//
W08/H18=

SAEHKD DE KOOY/DE KOOY NLD 1 m.
250355 ... METAR EHKD 250355Z AUTO 27022KT 240V300 9999 SCT008 BKN009 OVC011
09/08 Q1004 GRN=

SAEHKV K14-FA-1C NLD 41 m.
250355 ... METAR EHKV 250355Z AUTO 29017KT 230V340 9999 FEW005 SCT028 BKN035
07/06 Q1005 W///H///=

SAEHLW LEEUWARDEN/LEEUWARDEN NLD 1 m.
250355 ... METAR EHLW 250355Z AUTO 24022KT 9999 FEW008 SCT009 BKN011 11/10 Q1001
GRN=

SAEHMA AWG-1 NLD 40 m.
250355 ... METAR EHMA 250355Z AUTO 24030KT 9999 SCT008 BKN009 BKN013 12/10 Q1000
W///H///=

SAEHMG L9-FF-1 NLD 44 m.
250355 ... METAR EHMG 250355Z AUTO 31035KT 6000 FEW000 BKN002 OVC003 08/07 Q1001
W///H///=

SAEHPG P11-B NLD 41 m.
METAR EHPG 250355Z AUTO 27021KT 210V330 9999 FEW005 SCT011 09/08
Q1006 W///H///=

250355 ...
SAEHQE HOORN-A NLD 50 m.
250355 ... METAR EHQE 250355Z AUTO 29027KT //// // FEW003 BKN004 BKN006 08/07
Q1004 RE// W///H///=

SAEHRD ROTTERDAM/THE HAGUE AIRPORT NLD -5 m.
250355 ... METAR EHRD 250355Z AUTO 25018G31KT 220V280 9999 BKN010 OVC013 12/10
Q1006 BECMG 28015G25KT BKN015 TEMPO 4000 DZRA=

SAEHSA EURO PLATFORM NLD 19 m.
250355 ... METAR EHSA 250355Z AUTO 27020KT 9999 ///////// 10/08 Q1007 W08/H20=
SAEHSC LICHTEILAND GOEREE NLD 22 m.
250355 ... METAR EHSC 250355Z AUTO 27026KT 9000 ///////// 10/09 Q1007 W09/H20=
SAEHVK VOLKEL/VOLKEL NLD 21 m.
250355 ... METAR EHVK 250355Z AUTO 25017KT 220V290 9999 FEW017 BKN021 OVC024
13/10 Q1007 WHT=

SAEHVL VLIELAND NLD 10 m.
250355 ... METAR EHVL 250355Z AUTO 27026KT 9999 FEW006 SCT007 BKN008 08/08 Q1002
GRN=

SAEHWO WOENSDRECHT/WOENSDRECHT NLD 19 m.
250355 ... METAR EHWO 250355Z AUTO 24015KT 210V270 9999 SCT006 BKN007 BKN008
11/11 Q1008 YLO=

ENDOUTPUT